sensor_id;sensor_type;location;lat;lon;timestamp;temperature;humidity
15095;DHT22;7648;52.264;9.632;2023-02-07T00:03:17;-1.30;99.90
15095;DHT22;7648;52.264;9.632;2023-02-07T00:07:21;-1.30;99.90
15095;DHT22;7648;52.264;9.632;2023-02-07T00:11:23;-1.30;99.90
15095;DHT22;7648;52.264;9.632;2023-02-07T00:15:25;-1.40;99.90
15095;DHT22;7648;52.264;9.632;2023-02-07T00:19:27;-1.30;99.90
15095;DHT22;7648;52.264;9.632;2023-02-07T00:23:31;-1.30;99.90
15095;DHT22;7648;52.264;9.632;2023-02-07T00:27:32;-1.40;99.90
15095;DHT22;7648;52.264;9.632;2023-02-07T00:31:35;-1.50;99.90
15095;DHT22;7648;52.264;9.632;2023-02-07T00:35:36;-1.40;99.90
15095;DHT22;7648;52.264;9.632;2023-02-07T00:39:41;-1.50;99.90
15095;DHT22;7648;52.264;9.632;2023-02-07T00:43:45;-1.50;99.90
15095;DHT22;7648;52.264;9.632;2023-02-07T00:47:47;-1.50;99.90
15095;DHT22;7648;52.264;9.632;2023-02-07T00:51:49;-1.50;99.90
15095;DHT22;7648;52.264;9.632;2023-02-07T00:55:52;-1.50;99.90
15095;DHT22;7648;52.264;9.632;2023-02-07T00:59:54;-1.50;99.90
15095;DHT22;7648;52.264;9.632;2023-02-07T01:03:57;-1.50;99.90
15095;DHT22;7648;52.264;9.632;2023-02-07T01:07:59;-1.50;99.90
15095;DHT22;7648;52.264;9.632;2023-02-07T01:12:04;-1.50;99.90
15095;DHT22;7648;52.264;9.632;2023-02-07T01:16:06;-1.40;99.90
15095;DHT22;7648;52.264;9.632;2023-02-07T01:20:09;-1.40;99.90
15095;DHT22;7648;52.264;9.632;2023-02-07T01:24:11;-1.30;99.90
15095;DHT22;7648;52.264;9.632;2023-02-07T01:28:14;-1.30;99.90
15095;DHT22;7648;52.264;9.632;2023-02-07T01:32:16;-1.20;99.90
15095;DHT22;7648;52.264;9.632;2023-02-07T01:36:18;-1.20;99.90
15095;DHT22;7648;52.264;9.632;2023-02-07T01:40:20;-1.20;99.90
15095;DHT22;7648;52.264;9.632;2023-02-07T01:44:57;-1.20;99.90
15095;DHT22;7648;52.264;9.632;2023-02-07T01:49:04;-1.20;99.90
15095;DHT22;7648;52.264;9.632;2023-02-07T01:53:06;-1.20;99.90
15095;DHT22;7648;52.264;9.632;2023-02-07T01:57:12;-1.20;99.90
15095;DHT22;7648;52.264;9.632;2023-02-07T02:01:19;-1.10;99.90
15095;DHT22;7648;52.264;9.632;2023-02-07T02:05:24;-1.10;99.90
15095;DHT22;7648;52.264;9.632;2023-02-07T02:09:26;-1.10;99.90
15095;DHT22;7648;52.264;9.632;2023-02-07T02:13:32;-1.10;99.90
15095;DHT22;7648;52.264;9.632;2023-02-07T02:17:49;-1.10;99.90
15095;DHT22;7648;52.264;9.632;2023-02-07T02:22:23;-1.10;99.90
15095;DHT22;7648;52.264;9.632;2023-02-07T02:26:54;-1.10;99.90
15095;DHT22;7648;52.264;9.632;2023-02-07T02:35:34;-1.20;99.90
15095;DHT22;7648;52.264;9.632;2023-02-07T02:39:47;-1.20;99.90
15095;DHT22;7648;52.264;9.632;2023-02-07T02:43:55;-1.20;99.90
15095;DHT22;7648;52.264;9.632;2023-02-07T02:47:58;-1.30;99.90
15095;DHT22;7648;52.264;9.632;2023-02-07T02:52:03;-1.30;99.90
15095;DHT22;7648;52.264;9.632;2023-02-07T02:56:17;-1.30;99.90
15095;DHT22;7648;52.264;9.632;2023-02-07T03:00:36;-1.30;99.90
15095;DHT22;7648;52.264;9.632;2023-02-07T03:04:52;-1.30;99.90
15095;DHT22;7648;52.264;9.632;2023-02-07T03:09:05;-1.30;99.90
15095;DHT22;7648;52.264;9.632;2023-02-07T03:13:16;-1.30;99.90
15095;DHT22;7648;52.264;9.632;2023-02-07T03:17:25;-1.40;99.90
15095;DHT22;7648;52.264;9.632;2023-02-07T03:21:31;-1.40;99.90
15095;DHT22;7648;52.264;9.632;2023-02-07T03:25:37;-1.50;99.90
15095;DHT22;7648;52.264;9.632;2023-02-07T03:29:45;-1.50;99.90
15095;DHT22;7648;52.264;9.632;2023-02-07T03:33:48;-1.50;99.90
15095;DHT22;7648;52.264;9.632;2023-02-07T03:37:55;-1.60;99.90
15095;DHT22;7648;52.264;9.632;2023-02-07T03:42:02;-1.60;99.90
15095;DHT22;7648;52.264;9.632;2023-02-07T03:46:07;-1.70;99.90
15095;DHT22;7648;52.264;9.632;2023-02-07T03:50:09;-1.80;99.90
15095;DHT22;7648;52.264;9.632;2023-02-07T03:54:11;-1.80;99.90
15095;DHT22;7648;52.264;9.632;2023-02-07T03:58:15;-1.80;99.90
15095;DHT22;7648;52.264;9.632;2023-02-07T04:02:16;-1.90;99.90
15095;DHT22;7648;52.264;9.632;2023-02-07T04:06:18;-1.90;99.90
15095;DHT22;7648;52.264;9.632;2023-02-07T04:10:20;-1.90;99.90
15095;DHT22;7648;52.264;9.632;2023-02-07T04:14:24;-2.00;99.90
15095;DHT22;7648;52.264;9.632;2023-02-07T04:18:26;-2.00;99.90
15095;DHT22;7648;52.264;9.632;2023-02-07T04:22:28;-2.00;99.90
15095;DHT22;7648;52.264;9.632;2023-02-07T04:26:30;-2.00;99.90
15095;DHT22;7648;52.264;9.632;2023-02-07T04:30:33;-2.10;99.90
15095;DHT22;7648;52.264;9.632;2023-02-07T04:34:35;-2.10;99.90
15095;DHT22;7648;52.264;9.632;2023-02-07T04:38:37;-2.20;99.90
15095;DHT22;7648;52.264;9.632;2023-02-07T04:42:39;-2.20;99.90
15095;DHT22;7648;52.264;9.632;2023-02-07T04:46:42;-2.30;99.90
15095;DHT22;7648;52.264;9.632;2023-02-07T04:50:44;-2.30;99.90
15095;DHT22;7648;52.264;9.632;2023-02-07T04:54:46;-2.40;99.90
15095;DHT22;7648;52.264;9.632;2023-02-07T04:58:48;-2.40;99.90
15095;DHT22;7648;52.264;9.632;2023-02-07T05:02:51;-2.30;99.90
15095;DHT22;7648;52.264;9.632;2023-02-07T05:06:53;-2.40;99.90
15095;DHT22;7648;52.264;9.632;2023-02-07T05:10:55;-2.40;99.90
15095;DHT22;7648;52.264;9.632;2023-02-07T05:14:57;-2.40;99.90
15095;DHT22;7648;52.264;9.632;2023-02-07T05:19:00;-2.40;99.90
15095;DHT22;7648;52.264;9.632;2023-02-07T05:23:02;-2.50;99.90
15095;DHT22;7648;52.264;9.632;2023-02-07T05:27:04;-2.60;99.90
15095;DHT22;7648;52.264;9.632;2023-02-07T05:31:06;-2.60;99.90
15095;DHT22;7648;52.264;9.632;2023-02-07T05:35:09;-2.50;99.90
15095;DHT22;7648;52.264;9.632;2023-02-07T05:39:11;-2.50;99.90
15095;DHT22;7648;52.264;9.632;2023-02-07T05:43:13;-2.50;99.90
15095;DHT22;7648;52.264;9.632;2023-02-07T05:47:15;-2.60;99.90
15095;DHT22;7648;52.264;9.632;2023-02-07T05:51:19;-2.60;99.90
15095;DHT22;7648;52.264;9.632;2023-02-07T05:55:20;-2.60;99.90
15095;DHT22;7648;52.264;9.632;2023-02-07T05:59:22;-2.70;99.90
15095;DHT22;7648;52.264;9.632;2023-02-07T06:03:24;-2.60;99.90
15095;DHT22;7648;52.264;9.632;2023-02-07T06:07:27;-2.50;99.90
15095;DHT22;7648;52.264;9.632;2023-02-07T06:11:29;-2.50;99.90
15095;DHT22;7648;52.264;9.632;2023-02-07T06:15:31;-2.40;99.90
15095;DHT22;7648;52.264;9.632;2023-02-07T06:19:33;-2.40;99.90
15095;DHT22;7648;52.264;9.632;2023-02-07T06:23:36;-2.30;99.90
15095;DHT22;7648;52.264;9.632;2023-02-07T06:27:39;-2.30;99.90
15095;DHT22;7648;52.264;9.632;2023-02-07T06:31:41;-2.30;99.90
15095;DHT22;7648;52.264;9.632;2023-02-07T06:35:43;-2.30;99.90
15095;DHT22;7648;52.264;9.632;2023-02-07T06:39:48;-2.30;99.90
15095;DHT22;7648;52.264;9.632;2023-02-07T06:43:50;-2.20;99.90
15095;DHT22;7648;52.264;9.632;2023-02-07T06:47:52;-2.30;99.90
15095;DHT22;7648;52.264;9.632;2023-02-07T06:51:54;-2.30;99.90
15095;DHT22;7648;52.264;9.632;2023-02-07T06:55:57;-2.20;99.90
15095;DHT22;7648;52.264;9.632;2023-02-07T06:59:59;-2.30;99.90
15095;DHT22;7648;52.264;9.632;2023-02-07T07:04:01;-2.30;99.90
15095;DHT22;7648;52.264;9.632;2023-02-07T07:08:03;-2.30;99.90
15095;DHT22;7648;52.264;9.632;2023-02-07T07:12:06;-2.30;99.90
15095;DHT22;7648;52.264;9.632;2023-02-07T07:16:08;-2.30;99.90
15095;DHT22;7648;52.264;9.632;2023-02-07T07:20:10;-2.30;99.90
15095;DHT22;7648;52.264;9.632;2023-02-07T07:24:12;-2.20;99.90
15095;DHT22;7648;52.264;9.632;2023-02-07T07:28:16;-2.20;99.90
15095;DHT22;7648;52.264;9.632;2023-02-07T07:32:17;-2.20;99.90
15095;DHT22;7648;52.264;9.632;2023-02-07T07:36:20;-2.10;99.90
15095;DHT22;7648;52.264;9.632;2023-02-07T07:40:22;-2.10;99.90
15095;DHT22;7648;52.264;9.632;2023-02-07T07:44:25;-2.10;99.90
15095;DHT22;7648;52.264;9.632;2023-02-07T07:48:27;-2.00;99.90
15095;DHT22;7648;52.264;9.632;2023-02-07T07:52:29;-2.00;99.90
15095;DHT22;7648;52.264;9.632;2023-02-07T07:56:31;-2.00;99.90
15095;DHT22;7648;52.264;9.632;2023-02-07T08:00:36;-1.90;99.90
15095;DHT22;7648;52.264;9.632;2023-02-07T08:04:38;-1.90;99.90
15095;DHT22;7648;52.264;9.632;2023-02-07T08:08:40;-1.90;99.90
15095;DHT22;7648;52.264;9.632;2023-02-07T08:12:41;-1.80;99.90
15095;DHT22;7648;52.264;9.632;2023-02-07T08:16:45;-1.80;99.90
15095;DHT22;7648;52.264;9.632;2023-02-07T08:20:47;-1.70;99.90
15095;DHT22;7648;52.264;9.632;2023-02-07T08:24:49;-1.70;99.90
15095;DHT22;7648;52.264;9.632;2023-02-07T08:28:51;-1.70;99.90
15095;DHT22;7648;52.264;9.632;2023-02-07T08:32:54;-1.60;99.90
15095;DHT22;7648;52.264;9.632;2023-02-07T08:36:56;-1.60;99.90
15095;DHT22;7648;52.264;9.632;2023-02-07T08:40:58;-1.50;99.90
15095;DHT22;7648;52.264;9.632;2023-02-07T08:45:00;-1.50;99.90
15095;DHT22;7648;52.264;9.632;2023-02-07T08:49:05;-1.40;99.90
15095;DHT22;7648;52.264;9.632;2023-02-07T08:53:07;-1.30;99.90
15095;DHT22;7648;52.264;9.632;2023-02-07T08:57:09;-1.30;99.90
15095;DHT22;7648;52.264;9.632;2023-02-07T09:01:11;-1.30;99.90
15095;DHT22;7648;52.264;9.632;2023-02-07T09:05:15;-1.20;99.90
15095;DHT22;7648;52.264;9.632;2023-02-07T09:09:17;-1.20;99.90
15095;DHT22;7648;52.264;9.632;2023-02-07T09:13:18;-1.10;99.90
15095;DHT22;7648;52.264;9.632;2023-02-07T09:17:20;-1.00;99.90
15095;DHT22;7648;52.264;9.632;2023-02-07T09:21:24;-0.90;99.90
15095;DHT22;7648;52.264;9.632;2023-02-07T09:25:25;-0.90;99.90
15095;DHT22;7648;52.264;9.632;2023-02-07T09:29:27;-0.80;99.90
15095;DHT22;7648;52.264;9.632;2023-02-07T09:33:29;-0.70;99.90
15095;DHT22;7648;52.264;9.632;2023-02-07T09:37:33;-0.60;99.90
15095;DHT22;7648;52.264;9.632;2023-02-07T09:41:40;-0.50;99.90
15095;DHT22;7648;52.264;9.632;2023-02-07T09:45:46;-0.50;99.90
15095;DHT22;7648;52.264;9.632;2023-02-07T09:49:53;-0.40;99.90
15095;DHT22;7648;52.264;9.632;2023-02-07T09:54:00;-0.30;99.90
15095;DHT22;7648;52.264;9.632;2023-02-07T09:58:08;-0.20;99.90
15095;DHT22;7648;52.264;9.632;2023-02-07T10:02:18;-0.20;99.90
15095;DHT22;7648;52.264;9.632;2023-02-07T10:06:25;-0.10;99.90
15095;DHT22;7648;52.264;9.632;2023-02-07T10:10:38;0.00;99.90
15095;DHT22;7648;52.264;9.632;2023-02-07T10:14:58;0.00;99.90
15095;DHT22;7648;52.264;9.632;2023-02-07T10:19:06;0.10;99.90
15095;DHT22;7648;52.264;9.632;2023-02-07T10:23:22;0.10;99.90
15095;DHT22;7648;52.264;9.632;2023-02-07T10:27:30;0.20;99.90
15095;DHT22;7648;52.264;9.632;2023-02-07T10:31:36;0.30;99.90
15095;DHT22;7648;52.264;9.632;2023-02-07T10:35:38;0.30;99.90
15095;DHT22;7648;52.264;9.632;2023-02-07T10:39:43;0.40;99.90
15095;DHT22;7648;52.264;9.632;2023-02-07T10:43:47;0.50;99.90
15095;DHT22;7648;52.264;9.632;2023-02-07T10:47:49;0.50;99.90
15095;DHT22;7648;52.264;9.632;2023-02-07T10:51:53;0.60;99.90
15095;DHT22;7648;52.264;9.632;2023-02-07T10:55:56;0.80;99.90
15095;DHT22;7648;52.264;9.632;2023-02-07T11:00:03;1.20;99.90
15095;DHT22;7648;52.264;9.632;2023-02-07T11:04:21;1.30;99.90
15095;DHT22;7648;52.264;9.632;2023-02-07T11:08:25;1.30;99.90
15095;DHT22;7648;52.264;9.632;2023-02-07T11:12:28;1.40;99.90
15095;DHT22;7648;52.264;9.632;2023-02-07T11:16:31;2.00;99.90
15095;DHT22;7648;52.264;9.632;2023-02-07T11:20:35;4.10;99.90
15095;DHT22;7648;52.264;9.632;2023-02-07T11:24:37;5.30;99.90
15095;DHT22;7648;52.264;9.632;2023-02-07T11:28:39;6.30;99.90
15095;DHT22;7648;52.264;9.632;2023-02-07T11:32:53;6.90;99.90
15095;DHT22;7648;52.264;9.632;2023-02-07T11:37:09;7.00;99.90
15095;DHT22;7648;52.264;9.632;2023-02-07T11:41:19;6.60;99.90
15095;DHT22;7648;52.264;9.632;2023-02-07T11:45:22;5.90;99.90
15095;DHT22;7648;52.264;9.632;2023-02-07T11:49:27;5.20;99.90
15095;DHT22;7648;52.264;9.632;2023-02-07T11:53:35;4.80;99.90
15095;DHT22;7648;52.264;9.632;2023-02-07T11:57:38;4.50;99.90
15095;DHT22;7648;52.264;9.632;2023-02-07T12:01:40;4.30;99.90
15095;DHT22;7648;52.264;9.632;2023-02-07T12:05:47;4.10;99.90
15095;DHT22;7648;52.264;9.632;2023-02-07T12:09:53;4.10;99.90
15095;DHT22;7648;52.264;9.632;2023-02-07T12:13:59;4.00;99.90
15095;DHT22;7648;52.264;9.632;2023-02-07T12:18:06;4.00;99.90
15095;DHT22;7648;52.264;9.632;2023-02-07T12:22:16;4.10;99.90
15095;DHT22;7648;52.264;9.632;2023-02-07T12:26:22;3.90;99.90
15095;DHT22;7648;52.264;9.632;2023-02-07T12:30:30;3.90;99.90
15095;DHT22;7648;52.264;9.632;2023-02-07T12:34:39;3.80;99.90
15095;DHT22;7648;52.264;9.632;2023-02-07T12:38:50;3.80;99.90
15095;DHT22;7648;52.264;9.632;2023-02-07T12:42:55;3.80;99.90
15095;DHT22;7648;52.264;9.632;2023-02-07T12:47:01;3.80;99.90
15095;DHT22;7648;52.264;9.632;2023-02-07T12:51:15;3.80;99.90
15095;DHT22;7648;52.264;9.632;2023-02-07T12:55:26;3.80;99.90
15095;DHT22;7648;52.264;9.632;2023-02-07T12:59:41;3.90;99.90
15095;DHT22;7648;52.264;9.632;2023-02-07T13:08:40;3.90;99.90
15095;DHT22;7648;52.264;9.632;2023-02-07T13:12:51;3.90;99.90
15095;DHT22;7648;52.264;9.632;2023-02-07T13:17:07;3.90;99.90
15095;DHT22;7648;52.264;9.632;2023-02-07T13:21:19;3.90;99.90
15095;DHT22;7648;52.264;9.632;2023-02-07T13:25:26;3.90;99.90
15095;DHT22;7648;52.264;9.632;2023-02-07T13:29:32;3.90;99.90
15095;DHT22;7648;52.264;9.632;2023-02-07T13:33:36;3.80;99.90
15095;DHT22;7648;52.264;9.632;2023-02-07T13:37:46;3.80;99.90
15095;DHT22;7648;52.264;9.632;2023-02-07T13:42:08;3.80;99.90
15095;DHT22;7648;52.264;9.632;2023-02-07T13:46:25;3.70;99.90
15095;DHT22;7648;52.264;9.632;2023-02-07T13:50:40;3.70;99.90
15095;DHT22;7648;52.264;9.632;2023-02-07T13:54:54;3.60;99.90
15095;DHT22;7648;52.264;9.632;2023-02-07T13:58:56;3.60;99.90
15095;DHT22;7648;52.264;9.632;2023-02-07T14:03:21;3.60;99.90
15095;DHT22;7648;52.264;9.632;2023-02-07T14:07:25;3.50;99.90
15095;DHT22;7648;52.264;9.632;2023-02-07T14:11:34;3.50;99.90
15095;DHT22;7648;52.264;9.632;2023-02-07T14:16:00;3.50;99.90
15095;DHT22;7648;52.264;9.632;2023-02-07T14:20:04;3.50;99.90
15095;DHT22;7648;52.264;9.632;2023-02-07T14:24:22;3.50;99.90
15095;DHT22;7648;52.264;9.632;2023-02-07T14:28:32;3.50;99.90
15095;DHT22;7648;52.264;9.632;2023-02-07T14:32:45;3.50;99.90
15095;DHT22;7648;52.264;9.632;2023-02-07T14:37:18;3.50;99.90
15095;DHT22;7648;52.264;9.632;2023-02-07T14:41:27;3.50;99.90
15095;DHT22;7648;52.264;9.632;2023-02-07T14:45:30;3.50;99.90
15095;DHT22;7648;52.264;9.632;2023-02-07T14:49:35;3.50;99.90
15095;DHT22;7648;52.264;9.632;2023-02-07T14:53:41;3.50;99.90
15095;DHT22;7648;52.264;9.632;2023-02-07T14:57:49;3.50;99.90
15095;DHT22;7648;52.264;9.632;2023-02-07T15:01:52;3.50;99.90
15095;DHT22;7648;52.264;9.632;2023-02-07T15:05:57;3.50;99.90
15095;DHT22;7648;52.264;9.632;2023-02-07T15:10:01;3.50;99.90
15095;DHT22;7648;52.264;9.632;2023-02-07T15:14:04;3.60;99.90
15095;DHT22;7648;52.264;9.632;2023-02-07T15:18:11;3.70;99.90
15095;DHT22;7648;52.264;9.632;2023-02-07T15:22:23;3.70;99.90
15095;DHT22;7648;52.264;9.632;2023-02-07T15:26:27;3.80;99.90
15095;DHT22;7648;52.264;9.632;2023-02-07T15:30:30;3.90;99.90
15095;DHT22;7648;52.264;9.632;2023-02-07T15:34:32;4.00;99.90
15095;DHT22;7648;52.264;9.632;2023-02-07T15:38:34;4.00;99.90
15095;DHT22;7648;52.264;9.632;2023-02-07T15:42:48;3.90;99.90
15095;DHT22;7648;52.264;9.632;2023-02-07T15:46:52;4.00;99.90
15095;DHT22;7648;52.264;9.632;2023-02-07T15:50:55;3.90;99.90
15095;DHT22;7648;52.264;9.632;2023-02-07T15:55:01;3.80;99.90
15095;DHT22;7648;52.264;9.632;2023-02-07T15:59:09;3.50;99.90
15095;DHT22;7648;52.264;9.632;2023-02-07T16:03:19;3.20;99.90
15095;DHT22;7648;52.264;9.632;2023-02-07T16:07:22;2.90;99.90
15095;DHT22;7648;52.264;9.632;2023-02-07T16:11:36;2.80;99.90
15095;DHT22;7648;52.264;9.632;2023-02-07T16:15:51;2.60;99.90
15095;DHT22;7648;52.264;9.632;2023-02-07T16:19:54;2.40;99.90
15095;DHT22;7648;52.264;9.632;2023-02-07T16:24:00;2.30;99.90
15095;DHT22;7648;52.264;9.632;2023-02-07T16:28:08;2.10;99.90
15095;DHT22;7648;52.264;9.632;2023-02-07T16:32:13;1.90;99.90
15095;DHT22;7648;52.264;9.632;2023-02-07T16:36:17;1.80;99.90
15095;DHT22;7648;52.264;9.632;2023-02-07T16:40:19;1.70;99.90
15095;DHT22;7648;52.264;9.632;2023-02-07T16:44:23;1.60;99.90
15095;DHT22;7648;52.264;9.632;2023-02-07T16:48:26;1.50;99.90
15095;DHT22;7648;52.264;9.632;2023-02-07T16:52:28;1.40;99.90
15095;DHT22;7648;52.264;9.632;2023-02-07T16:56:30;1.20;99.90
15095;DHT22;7648;52.264;9.632;2023-02-07T17:00:32;1.10;99.90
15095;DHT22;7648;52.264;9.632;2023-02-07T17:04:36;1.00;99.90
15095;DHT22;7648;52.264;9.632;2023-02-07T17:08:37;0.90;99.90
15095;DHT22;7648;52.264;9.632;2023-02-07T17:12:39;0.80;99.90
15095;DHT22;7648;52.264;9.632;2023-02-07T17:16:42;0.70;99.90
15095;DHT22;7648;52.264;9.632;2023-02-07T17:20:46;0.60;99.90
15095;DHT22;7648;52.264;9.632;2023-02-07T17:24:48;0.50;99.90
15095;DHT22;7648;52.264;9.632;2023-02-07T17:28:50;0.40;99.90
15095;DHT22;7648;52.264;9.632;2023-02-07T17:32:53;0.40;99.90
15095;DHT22;7648;52.264;9.632;2023-02-07T17:36:56;0.30;99.90
15095;DHT22;7648;52.264;9.632;2023-02-07T17:40:58;0.20;99.90
15095;DHT22;7648;52.264;9.632;2023-02-07T17:45:00;0.20;99.90
15095;DHT22;7648;52.264;9.632;2023-02-07T17:49:02;0.10;99.90
15095;DHT22;7648;52.264;9.632;2023-02-07T17:53:06;0.00;99.90
15095;DHT22;7648;52.264;9.632;2023-02-07T17:57:10;-0.10;99.90
15095;DHT22;7648;52.264;9.632;2023-02-07T18:01:13;-0.10;99.90
15095;DHT22;7648;52.264;9.632;2023-02-07T18:05:19;-0.10;99.90
15095;DHT22;7648;52.264;9.632;2023-02-07T18:09:22;-0.10;99.90
15095;DHT22;7648;52.264;9.632;2023-02-07T18:13:24;-0.10;99.90
15095;DHT22;7648;52.264;9.632;2023-02-07T18:17:26;-0.20;99.90
15095;DHT22;7648;52.264;9.632;2023-02-07T18:21:28;-0.20;99.90
15095;DHT22;7648;52.264;9.632;2023-02-07T18:25:31;-0.30;99.90
15095;DHT22;7648;52.264;9.632;2023-02-07T18:29:34;-0.30;99.90
15095;DHT22;7648;52.264;9.632;2023-02-07T18:33:36;-0.30;99.90
15095;DHT22;7648;52.264;9.632;2023-02-07T18:37:38;-0.30;99.90
15095;DHT22;7648;52.264;9.632;2023-02-07T18:41:41;-0.40;99.90
15095;DHT22;7648;52.264;9.632;2023-02-07T18:45:43;-0.30;99.90
15095;DHT22;7648;52.264;9.632;2023-02-07T18:49:45;-0.40;99.90
15095;DHT22;7648;52.264;9.632;2023-02-07T18:53:47;-0.40;99.90
15095;DHT22;7648;52.264;9.632;2023-02-07T18:57:53;-0.40;99.90
15095;DHT22;7648;52.264;9.632;2023-02-07T19:01:55;-0.50;99.90
15095;DHT22;7648;52.264;9.632;2023-02-07T19:05:57;-0.50;99.90
15095;DHT22;7648;52.264;9.632;2023-02-07T19:10:00;-0.50;99.90
15095;DHT22;7648;52.264;9.632;2023-02-07T19:14:09;-0.60;99.90
15095;DHT22;7648;52.264;9.632;2023-02-07T19:18:12;-0.60;99.90
15095;DHT22;7648;52.264;9.632;2023-02-07T19:22:14;-0.70;99.90
15095;DHT22;7648;52.264;9.632;2023-02-07T19:26:16;-0.60;99.90
15095;DHT22;7648;52.264;9.632;2023-02-07T19:30:19;-0.60;99.90
15095;DHT22;7648;52.264;9.632;2023-02-07T19:34:21;-0.70;99.90
15095;DHT22;7648;52.264;9.632;2023-02-07T19:38:23;-0.70;99.90
15095;DHT22;7648;52.264;9.632;2023-02-07T19:42:25;-0.70;99.90
15095;DHT22;7648;52.264;9.632;2023-02-07T19:46:28;-0.70;99.90
15095;DHT22;7648;52.264;9.632;2023-02-07T19:50:30;-0.70;99.90
15095;DHT22;7648;52.264;9.632;2023-02-07T19:54:32;-0.70;99.90
15095;DHT22;7648;52.264;9.632;2023-02-07T19:58:34;-0.70;99.90
15095;DHT22;7648;52.264;9.632;2023-02-07T20:02:37;-0.70;99.90
15095;DHT22;7648;52.264;9.632;2023-02-07T20:06:39;-0.70;99.90
15095;DHT22;7648;52.264;9.632;2023-02-07T20:10:41;-0.80;99.90
15095;DHT22;7648;52.264;9.632;2023-02-07T20:14:44;-0.80;99.90
15095;DHT22;7648;52.264;9.632;2023-02-07T20:18:47;-0.90;99.90
15095;DHT22;7648;52.264;9.632;2023-02-07T20:22:52;-0.90;99.90
15095;DHT22;7648;52.264;9.632;2023-02-07T20:26:54;-0.90;99.90
15095;DHT22;7648;52.264;9.632;2023-02-07T20:30:56;-1.00;99.90
15095;DHT22;7648;52.264;9.632;2023-02-07T20:34:59;-1.00;99.90
15095;DHT22;7648;52.264;9.632;2023-02-07T20:39:01;-1.00;99.90
15095;DHT22;7648;52.264;9.632;2023-02-07T20:43:03;-1.00;99.90
15095;DHT22;7648;52.264;9.632;2023-02-07T20:47:04;-1.00;99.90
15095;DHT22;7648;52.264;9.632;2023-02-07T20:51:09;-1.00;99.90
15095;DHT22;7648;52.264;9.632;2023-02-07T20:55:11;-0.90;99.90
15095;DHT22;7648;52.264;9.632;2023-02-07T20:59:15;-0.80;99.90
15095;DHT22;7648;52.264;9.632;2023-02-07T21:03:17;-0.70;99.90
15095;DHT22;7648;52.264;9.632;2023-02-07T21:07:21;-0.80;99.90
15095;DHT22;7648;52.264;9.632;2023-02-07T21:11:24;-0.80;99.90
15095;DHT22;7648;52.264;9.632;2023-02-07T21:15:26;-0.80;99.90
15095;DHT22;7648;52.264;9.632;2023-02-07T21:19:28;-0.70;99.90
15095;DHT22;7648;52.264;9.632;2023-02-07T21:23:31;-0.70;99.90
15095;DHT22;7648;52.264;9.632;2023-02-07T21:27:33;-0.70;99.90
15095;DHT22;7648;52.264;9.632;2023-02-07T21:31:35;-0.70;99.90
15095;DHT22;7648;52.264;9.632;2023-02-07T21:35:37;-0.70;99.90
15095;DHT22;7648;52.264;9.632;2023-02-07T21:39:40;-0.70;99.90
15095;DHT22;7648;52.264;9.632;2023-02-07T21:43:42;-0.80;99.90
15095;DHT22;7648;52.264;9.632;2023-02-07T21:47:44;-0.70;99.90
15095;DHT22;7648;52.264;9.632;2023-02-07T21:51:47;-0.70;99.90
15095;DHT22;7648;52.264;9.632;2023-02-07T21:55:51;-0.80;99.90
15095;DHT22;7648;52.264;9.632;2023-02-07T21:59:52;-0.80;99.90
15095;DHT22;7648;52.264;9.632;2023-02-07T22:03:57;-0.80;99.90
15095;DHT22;7648;52.264;9.632;2023-02-07T22:07:59;-0.80;99.90
15095;DHT22;7648;52.264;9.632;2023-02-07T22:12:03;-0.80;99.90
15095;DHT22;7648;52.264;9.632;2023-02-07T22:16:06;-0.80;99.90
15095;DHT22;7648;52.264;9.632;2023-02-07T22:20:09;-0.90;99.90
15095;DHT22;7648;52.264;9.632;2023-02-07T22:24:13;-0.80;99.90
15095;DHT22;7648;52.264;9.632;2023-02-07T22:28:16;-0.80;99.90
15095;DHT22;7648;52.264;9.632;2023-02-07T22:32:18;-0.70;99.90
15095;DHT22;7648;52.264;9.632;2023-02-07T22:36:22;-0.60;99.90
15095;DHT22;7648;52.264;9.632;2023-02-07T22:40:25;-0.60;99.90
15095;DHT22;7648;52.264;9.632;2023-02-07T22:44:29;-0.60;99.90
15095;DHT22;7648;52.264;9.632;2023-02-07T22:48:31;-0.80;99.90
15095;DHT22;7648;52.264;9.632;2023-02-07T22:52:33;-0.90;99.90
15095;DHT22;7648;52.264;9.632;2023-02-07T22:56:36;-1.00;99.90
15095;DHT22;7648;52.264;9.632;2023-02-07T23:00:40;-1.10;99.90
15095;DHT22;7648;52.264;9.632;2023-02-07T23:04:42;-1.20;99.90
15095;DHT22;7648;52.264;9.632;2023-02-07T23:08:44;-1.20;99.90
15095;DHT22;7648;52.264;9.632;2023-02-07T23:12:46;-1.30;99.90
15095;DHT22;7648;52.264;9.632;2023-02-07T23:16:49;-1.10;99.90
15095;DHT22;7648;52.264;9.632;2023-02-07T23:20:51;-1.00;99.90
15095;DHT22;7648;52.264;9.632;2023-02-07T23:24:53;-0.90;99.90
15095;DHT22;7648;52.264;9.632;2023-02-07T23:28:56;-0.80;99.90
15095;DHT22;7648;52.264;9.632;2023-02-07T23:32:59;-0.80;99.90
15095;DHT22;7648;52.264;9.632;2023-02-07T23:37:01;-0.90;99.90
15095;DHT22;7648;52.264;9.632;2023-02-07T23:41:03;-1.00;99.90
15095;DHT22;7648;52.264;9.632;2023-02-07T23:45:05;-0.90;99.90
15095;DHT22;7648;52.264;9.632;2023-02-07T23:49:09;-0.80;99.90
15095;DHT22;7648;52.264;9.632;2023-02-07T23:53:11;-0.70;99.90
15095;DHT22;7648;52.264;9.632;2023-02-07T23:57:13;-0.60;99.90
